KDLH/DLH METAR and TAF weather

Enter ICAO airport designator
Station Type Date Time Source
KDLH METAR 2020/12/06 00:55 UTC NOAA

KDLH 060055Z 00000KT 10SM OVC045 M02/M05 A3010 RMK AO2 SLP219 T10221050


Station Type Date Time Source
KDLH Decoded METAR 2020/12/06 00:55 UTC NOAA

Duluth, Duluth International Airport, MN, United States (KDLH) 46-50-34N 092-13-34W 435M
Dec 05, 2020 - 07:55 PM EST / 2020.12.06 0055 UTC
Wind: Calm:0
Visibility: 10 mile(s):0
Sky conditions: overcast
Temperature: 28.0 F (-2.2 C)
Dew Point: 23.0 F (-5.0 C)
Relative Humidity: 81%
Pressure (altimeter): 30.1 in. Hg (1019 hPa)
ob: KDLH 060055Z 00000KT 10SM OVC045 M02/M05 A3010 RMK AO2 SLP219 T10221050
cycle: 1

Station Type Date Time Source
KDLH TAF 2020/12/05 18:42 UTC NOAA

TAF KDLH 051739Z 0518/0618 VRB04KT P6SM BKN120
FM052000 VRB04KT P6SM VCSH BKN100
FM052300 VRB03KT P6SM OVC090
FM060800 VRB04KT P6SM BKN030
FM061300 30005KT 4SM BR BKN007

Example: see airport list